Sim-Planet VA

Sim-Planet Nouvel Horizon. By: Anthony Pay
Since 2020.




 METAR ET TAF INFORMATION
METAR FOR FMCZ
ADDS - METARS form results

(1005 UTC 24 July 2021)
Data provider http://aviationweather.gov/metar/data/
 
METAR text: FMCZ 241000Z AUTO 17014KT CAVOK 29/19 Q1018 NOSIG
Conditions at: FMCZ (DZAOUDZI/PAMANZI, KM) observed 1000 UTC 24 July 2021
Temperature: 29.0°C (84°F)
Dewpoint: 19.0°C (66°F) [RH = 55%]
Pressure (altimeter): 30.06 inches Hg (1018.0 mb)
Winds: from the S (170 degrees) at 16 MPH (14 knots; 7.2 m/s)
Visibility: 6 or more miles (10+ km)
Ceiling: ceiling and visibility are OK
Clouds: unknown
Weather: no significant weather observed at this time

METAR text: FMCZ 240930Z AUTO 17013KT CAVOK 29/19 Q1018 NOSIG
Conditions at: FMCZ (DZAOUDZI/PAMANZI, KM) observed 0930 UTC 24 July 2021
Temperature: 29.0°C (84°F)
Dewpoint: 19.0°C (66°F) [RH = 55%]
Pressure (altimeter): 30.06 inches Hg (1018.0 mb)
Winds: from the S (170 degrees) at 15 MPH (13 knots; 6.7 m/s)
Visibility: 6 or more miles (10+ km)
Ceiling: ceiling and visibility are OK
Clouds: unknown
Weather: no significant weather observed at this time

Forecast for: FMCZ (DZAOUDZI/PAMANZI, KM)
Text: TAF FMCZ 240500Z 2406/2506 18016KT 9999 SCT022
Forecast period: 0600 UTC 24 July 2021 to 0600 UTC 25 July 2021
Forecast type: FROM: standard forecast or significant change
Winds: from the S (180 degrees) at 18 MPH (16 knots; 8.2 m/s)
Visibility: 6 or more miles (10+ km)
Ceiling: at least 12,000 feet AGL
Clouds: scattered clouds at 2200 feet AGL
Weather: no significant weather forecast for this period

 AÉROPORT DE AÉROPORT

 INFORMATIONS DE PISTE
Piste 16 Longueur de la piste 6330 ft Largeur de la piste 92 ft
Élévation de la piste 10 ft Seuil de la piste déplacés 250 ft Runway heading 150
Piste 34 Longueur de la piste 6330 ft Largeur de la piste 92 ft
Élévation de la piste 23 ft Seuil de la piste déplacés 0 ft Runway heading 330

 AÉROPORT FRÉQUENCES
Type AFIS Nom AFIS Féquence 119.2 MHZ

 SIDA DE NAVIGATION
Type VOR-DME Nom Dzaoudzi Pamandzi Féquence 113500 KHZ
Type NDB Nom Dzaoudzi Pamandzi Féquence 341 KHZ